sensor_id;sensor_type;location;lat;lon;timestamp;pressure;altitude;pressure_sealevel;temperature;humidity
9077;BME280;4574;51.072;17.174;2023-03-22T00:00:08;99982.09;;;10.25;100.00
9077;BME280;4574;51.072;17.174;2023-03-22T00:02:42;99975.69;;;10.27;100.00
9077;BME280;4574;51.072;17.174;2023-03-22T00:05:11;99979.03;;;10.29;100.00
9077;BME280;4574;51.072;17.174;2023-03-22T00:07:39;99974.84;;;10.27;100.00
9077;BME280;4574;51.072;17.174;2023-03-22T00:10:09;99977.34;;;10.28;100.00
9077;BME280;4574;51.072;17.174;2023-03-22T00:12:38;99966.91;;;10.27;100.00
9077;BME280;4574;51.072;17.174;2023-03-22T00:15:07;99964.94;;;10.29;100.00
9077;BME280;4574;51.072;17.174;2023-03-22T00:17:37;99959.28;;;10.24;100.00
9077;BME280;4574;51.072;17.174;2023-03-22T00:20:08;99964.50;;;10.33;100.00
9077;BME280;4574;51.072;17.174;2023-03-22T00:22:38;99970.63;;;10.34;100.00
9077;BME280;4574;51.072;17.174;2023-03-22T00:25:07;99967.00;;;10.35;100.00
9077;BME280;4574;51.072;17.174;2023-03-22T00:27:36;99964.22;;;10.36;100.00
9077;BME280;4574;51.072;17.174;2023-03-22T00:30:05;99954.44;;;10.37;100.00
9077;BME280;4574;51.072;17.174;2023-03-22T00:32:35;99946.38;;;10.38;100.00
9077;BME280;4574;51.072;17.174;2023-03-22T00:35:05;99955.28;;;10.37;100.00
9077;BME280;4574;51.072;17.174;2023-03-22T00:37:35;99929.13;;;10.34;100.00
9077;BME280;4574;51.072;17.174;2023-03-22T00:40:06;99945.00;;;10.34;100.00
9077;BME280;4574;51.072;17.174;2023-03-22T00:42:36;99947.66;;;10.34;100.00
9077;BME280;4574;51.072;17.174;2023-03-22T00:45:07;99938.06;;;10.33;100.00
9077;BME280;4574;51.072;17.174;2023-03-22T00:47:36;99937.38;;;10.31;100.00
9077;BME280;4574;51.072;17.174;2023-03-22T00:50:06;99929.44;;;10.31;100.00
9077;BME280;4574;51.072;17.174;2023-03-22T00:52:36;99921.13;;;10.26;100.00
9077;BME280;4574;51.072;17.174;2023-03-22T00:55:05;99912.28;;;10.18;100.00
9077;BME280;4574;51.072;17.174;2023-03-22T00:57:34;99918.69;;;10.15;100.00
9077;BME280;4574;51.072;17.174;2023-03-22T01:00:04;99918.97;;;10.12;100.00
9077;BME280;4574;51.072;17.174;2023-03-22T01:02:42;99902.06;;;10.05;100.00
9077;BME280;4574;51.072;17.174;2023-03-22T01:05:12;99914.69;;;10.11;100.00
9077;BME280;4574;51.072;17.174;2023-03-22T01:07:43;99912.03;;;10.11;100.00
9077;BME280;4574;51.072;17.174;2023-03-22T01:10:12;99902.06;;;10.05;100.00
9077;BME280;4574;51.072;17.174;2023-03-22T01:12:41;99900.78;;;10.09;100.00
9077;BME280;4574;51.072;17.174;2023-03-22T01:15:11;99894.81;;;10.07;100.00
9077;BME280;4574;51.072;17.174;2023-03-22T01:17:39;99891.47;;;10.05;100.00
9077;BME280;4574;51.072;17.174;2023-03-22T01:20:10;99902.22;;;10.04;100.00
9077;BME280;4574;51.072;17.174;2023-03-22T01:22:39;99891.47;;;10.05;100.00
9077;BME280;4574;51.072;17.174;2023-03-22T01:25:10;99888.53;;;10.08;100.00
9077;BME280;4574;51.072;17.174;2023-03-22T01:27:40;99894.81;;;10.07;100.00
9077;BME280;4574;51.072;17.174;2023-03-22T01:30:09;99887.56;;;10.09;100.00
9077;BME280;4574;51.072;17.174;2023-03-22T01:32:39;99885.59;;;10.11;100.00
9077;BME280;4574;51.072;17.174;2023-03-22T01:35:08;99884.22;;;10.07;100.00
9077;BME280;4574;51.072;17.174;2023-03-22T01:37:37;99856.59;;;10.02;100.00
9077;BME280;4574;51.072;17.174;2023-03-22T01:40:09;99875.00;;;10.11;100.00
9077;BME280;4574;51.072;17.174;2023-03-22T01:42:38;99871.38;;;10.12;100.00
9077;BME280;4574;51.072;17.174;2023-03-22T01:45:37;99869.41;;;10.14;100.00
9077;BME280;4574;51.072;17.174;2023-03-22T01:48:14;99862.16;;;10.16;100.00
9077;BME280;4574;51.072;17.174;2023-03-22T01:50:50;99865.78;;;10.15;100.00
9077;BME280;4574;51.072;17.174;2023-03-22T01:53:23;99857.34;;;10.12;100.00
9077;BME280;4574;51.072;17.174;2023-03-22T01:55:56;99863.13;;;10.15;100.00
9077;BME280;4574;51.072;17.174;2023-03-22T01:58:26;99862.47;;;10.13;100.00
9077;BME280;4574;51.072;17.174;2023-03-22T02:00:55;99852.56;;;10.15;100.00
9077;BME280;4574;51.072;17.174;2023-03-22T02:03:29;99872.16;;;10.22;100.00
9077;BME280;4574;51.072;17.174;2023-03-22T02:05:59;99864.91;;;10.24;100.00
9077;BME280;4574;51.072;17.174;2023-03-22T02:08:29;99848.94;;;10.16;100.00
9077;BME280;4574;51.072;17.174;2023-03-22T02:11:02;99855.44;;;10.22;100.00
9077;BME280;4574;51.072;17.174;2023-03-22T02:13:43;99856.97;;;10.24;100.00
9077;BME280;4574;51.072;17.174;2023-03-22T02:16:32;99861.94;;;10.27;100.00
9077;BME280;4574;51.072;17.174;2023-03-22T02:19:20;99853.16;;;10.27;100.00
9077;BME280;4574;51.072;17.174;2023-03-22T02:22:32;99856.66;;;10.27;100.00
9077;BME280;4574;51.072;17.174;2023-03-22T02:28:24;99836.78;;;10.23;100.00
9077;BME280;4574;51.072;17.174;2023-03-22T02:34:27;99849.03;;;10.24;100.00
9077;BME280;4574;51.072;17.174;2023-03-22T02:37:22;99847.75;;;10.28;100.00
9077;BME280;4574;51.072;17.174;2023-03-22T02:39:59;99853.53;;;10.32;100.00
9077;BME280;4574;51.072;17.174;2023-03-22T02:42:41;99847.13;;;10.34;100.00
9077;BME280;4574;51.072;17.174;2023-03-22T02:45:17;99843.31;;;10.37;100.00
9077;BME280;4574;51.072;17.174;2023-03-22T02:47:53;99848.31;;;10.40;100.00
9077;BME280;4574;51.072;17.174;2023-03-22T02:50:27;99846.19;;;10.43;100.00
9077;BME280;4574;51.072;17.174;2023-03-22T02:53:03;99840.72;;;10.45;100.00
9077;BME280;4574;51.072;17.174;2023-03-22T02:55:36;99840.59;;;10.46;100.00
9077;BME280;4574;51.072;17.174;2023-03-22T02:58:11;99842.56;;;10.44;100.00
9077;BME280;4574;51.072;17.174;2023-03-22T03:00:43;99846.69;;;10.47;100.00
9077;BME280;4574;51.072;17.174;2023-03-22T03:03:15;99838.94;;;10.45;100.00
9077;BME280;4574;51.072;17.174;2023-03-22T03:05:49;99841.25;;;10.48;100.00
9077;BME280;4574;51.072;17.174;2023-03-22T03:08:21;99845.72;;;10.48;100.00
9077;BME280;4574;51.072;17.174;2023-03-22T03:10:53;99852.53;;;10.50;100.00
9077;BME280;4574;51.072;17.174;2023-03-22T03:13:22;99856.16;;;10.49;100.00
9077;BME280;4574;51.072;17.174;2023-03-22T03:15:53;99842.25;;;10.47;100.00
9077;BME280;4574;51.072;17.174;2023-03-22T03:18:35;99849.88;;;10.50;100.00
9077;BME280;4574;51.072;17.174;2023-03-22T03:21:17;99846.56;;;10.48;100.00
9077;BME280;4574;51.072;17.174;2023-03-22T03:23:53;99848.22;;;10.49;100.00
9077;BME280;4574;51.072;17.174;2023-03-22T03:26:35;99861.44;;;10.49;100.00
9077;BME280;4574;51.072;17.174;2023-03-22T03:29:10;99849.34;;;10.47;100.00
9077;BME280;4574;51.072;17.174;2023-03-22T03:31:47;99854.81;;;10.45;100.00
9077;BME280;4574;51.072;17.174;2023-03-22T03:34:19;99857.16;;;10.48;100.00
9077;BME280;4574;51.072;17.174;2023-03-22T03:36:54;99865.09;;;10.48;100.00
9077;BME280;4574;51.072;17.174;2023-03-22T03:39:26;99865.59;;;10.52;100.00
9077;BME280;4574;51.072;17.174;2023-03-22T03:42:00;99858.94;;;10.48;100.00
9077;BME280;4574;51.072;17.174;2023-03-22T03:44:30;99865.75;;;10.50;100.00
9077;BME280;4574;51.072;17.174;2023-03-22T03:47:01;99882.81;;;10.56;100.00
9077;BME280;4574;51.072;17.174;2023-03-22T03:49:30;99886.63;;;10.53;100.00
9077;BME280;4574;51.072;17.174;2023-03-22T03:51:59;99888.28;;;10.54;100.00
9077;BME280;4574;51.072;17.174;2023-03-22T03:54:28;99890.94;;;10.54;100.00
9077;BME280;4574;51.072;17.174;2023-03-22T03:56:58;99889.94;;;10.55;100.00
9077;BME280;4574;51.072;17.174;2023-03-22T03:59:29;99884.66;;;10.55;100.00
9077;BME280;4574;51.072;17.174;2023-03-22T04:01:58;99887.97;;;10.57;100.00
9077;BME280;4574;51.072;17.174;2023-03-22T04:04:28;99879.50;;;10.54;100.00
9077;BME280;4574;51.072;17.174;2023-03-22T04:06:58;99889.63;;;10.58;100.00
9077;BME280;4574;51.072;17.174;2023-03-22T04:09:28;99884.34;;;10.58;100.00
9077;BME280;4574;51.072;17.174;2023-03-22T04:11:59;99890.63;;;10.57;100.00
9077;BME280;4574;51.072;17.174;2023-03-22T04:14:28;99881.47;;;10.52;100.00
9077;BME280;4574;51.072;17.174;2023-03-22T04:16:57;99890.25;;;10.52;100.00
9077;BME280;4574;51.072;17.174;2023-03-22T04:19:25;99886.94;;;10.50;100.00
9077;BME280;4574;51.072;17.174;2023-03-22T04:21:54;99884.66;;;10.55;100.00
9077;BME280;4574;51.072;17.174;2023-03-22T04:24:23;99883.66;;;10.56;100.00
9077;BME280;4574;51.072;17.174;2023-03-22T04:26:52;99883.28;;;10.51;100.00
9077;BME280;4574;51.072;17.174;2023-03-22T04:29:22;99886.44;;;10.55;100.00
9077;BME280;4574;51.072;17.174;2023-03-22T04:31:51;99879.66;;;10.52;100.00
9077;BME280;4574;51.072;17.174;2023-03-22T04:34:20;99878.00;;;10.51;100.00
9077;BME280;4574;51.072;17.174;2023-03-22T04:36:48;99878.63;;;10.45;100.00
9077;BME280;4574;51.072;17.174;2023-03-22T04:39:17;99873.31;;;10.45;100.00
9077;BME280;4574;51.072;17.174;2023-03-22T04:41:46;99871.66;;;10.44;100.00
9077;BME280;4574;51.072;17.174;2023-03-22T04:44:14;99869.47;;;10.40;100.00
9077;BME280;4574;51.072;17.174;2023-03-22T04:46:44;99860.66;;;10.31;100.00
9077;BME280;4574;51.072;17.174;2023-03-22T04:49:13;99867.59;;;10.32;100.00
9077;BME280;4574;51.072;17.174;2023-03-22T04:51:41;99862.94;;;10.26;100.00
9077;BME280;4574;51.072;17.174;2023-03-22T04:54:10;99857.09;;;10.23;100.00
9077;BME280;4574;51.072;17.174;2023-03-22T04:56:38;99858.53;;;10.17;100.00
9077;BME280;4574;51.072;17.174;2023-03-22T04:59:07;99860.34;;;10.17;100.00
9077;BME280;4574;51.072;17.174;2023-03-22T05:01:37;99850.91;;;10.14;100.00
9077;BME280;4574;51.072;17.174;2023-03-22T05:04:08;99850.22;;;10.12;100.00
9077;BME280;4574;51.072;17.174;2023-03-22T05:06:36;99851.38;;;10.10;100.00
9077;BME280;4574;51.072;17.174;2023-03-22T05:09:05;99846.22;;;10.08;100.00
9077;BME280;4574;51.072;17.174;2023-03-22T05:11:34;99835.28;;;10.03;100.00
9077;BME280;4574;51.072;17.174;2023-03-22T05:14:03;99839.88;;;10.01;100.00
9077;BME280;4574;51.072;17.174;2023-03-22T05:16:32;99838.41;;;9.89;100.00
9077;BME280;4574;51.072;17.174;2023-03-22T05:19:00;99836.47;;;9.91;100.00
9077;BME280;4574;51.072;17.174;2023-03-22T05:21:30;99848.19;;;9.89;100.00
9077;BME280;4574;51.072;17.174;2023-03-22T05:24:03;99849.00;;;9.89;100.00
9077;BME280;4574;51.072;17.174;2023-03-22T05:26:32;99850.66;;;9.90;100.00
9077;BME280;4574;51.072;17.174;2023-03-22T05:29:04;99847.19;;;9.90;100.00
9077;BME280;4574;51.072;17.174;2023-03-22T05:31:32;99850.34;;;9.93;100.00
9077;BME280;4574;51.072;17.174;2023-03-22T05:34:01;99858.97;;;9.95;100.00
9077;BME280;4574;51.072;17.174;2023-03-22T05:36:31;99857.31;;;9.94;100.00
9077;BME280;4574;51.072;17.174;2023-03-22T05:39:03;99858.44;;;9.92;100.00
9077;BME280;4574;51.072;17.174;2023-03-22T05:41:31;99865.63;;;9.99;100.00
9077;BME280;4574;51.072;17.174;2023-03-22T05:44:03;99861.72;;;10.03;100.00
9077;BME280;4574;51.072;17.174;2023-03-22T05:46:31;99863.38;;;10.04;100.00
9077;BME280;4574;51.072;17.174;2023-03-22T05:49:03;99864.06;;;10.06;100.00
9077;BME280;4574;51.072;17.174;2023-03-22T05:51:33;99860.81;;;10.12;100.00
9077;BME280;4574;51.072;17.174;2023-03-22T05:54:08;99867.75;;;10.13;100.00
9077;BME280;4574;51.072;17.174;2023-03-22T05:56:36;99860.50;;;10.15;100.00
9077;BME280;4574;51.072;17.174;2023-03-22T05:59:05;99852.88;;;10.12;100.00
9077;BME280;4574;51.072;17.174;2023-03-22T06:01:34;99861.03;;;10.19;100.00
9077;BME280;4574;51.072;17.174;2023-03-22T06:04:03;99866.88;;;10.22;100.00
9077;BME280;4574;51.072;17.174;2023-03-22T06:06:33;99863.13;;;10.15;100.00
9077;BME280;4574;51.072;17.174;2023-03-22T06:09:02;99858.25;;;10.20;100.00
9077;BME280;4574;51.072;17.174;2023-03-22T06:11:42;99866.03;;;10.22;100.00
9077;BME280;4574;51.072;17.174;2023-03-22T06:14:11;99870.50;;;10.21;100.00
9077;BME280;4574;51.072;17.174;2023-03-22T06:16:39;99853.25;;;10.17;100.00
9077;BME280;4574;51.072;17.174;2023-03-22T06:19:08;99857.41;;;10.20;100.00
9077;BME280;4574;51.072;17.174;2023-03-22T06:21:38;99874.81;;;10.22;100.00
9077;BME280;4574;51.072;17.174;2023-03-22T06:24:07;99859.06;;;10.21;100.00
9077;BME280;4574;51.072;17.174;2023-03-22T06:26:36;99856.56;;;10.19;100.00
9077;BME280;4574;51.072;17.174;2023-03-22T06:29:05;99861.56;;;10.22;100.00
9077;BME280;4574;51.072;17.174;2023-03-22T06:31:33;99863.25;;;10.23;100.00
9077;BME280;4574;51.072;17.174;2023-03-22T06:34:02;99859.59;;;10.24;100.00
9077;BME280;4574;51.072;17.174;2023-03-22T06:36:31;99854.31;;;10.24;100.00
9077;BME280;4574;51.072;17.174;2023-03-22T06:39:01;99847.19;;;10.25;100.00
9077;BME280;4574;51.072;17.174;2023-03-22T06:41:31;99858.16;;;10.30;100.00
9077;BME280;4574;51.072;17.174;2023-03-22T06:43:59;99855.19;;;10.33;100.00
9077;BME280;4574;51.072;17.174;2023-03-22T06:46:28;99852.25;;;10.36;100.00
9077;BME280;4574;51.072;17.174;2023-03-22T06:48:57;99857.91;;;10.41;100.00
9077;BME280;4574;51.072;17.174;2023-03-22T06:51:25;99863.72;;;10.44;100.00
9077;BME280;4574;51.072;17.174;2023-03-22T06:53:54;99867.72;;;10.48;100.00
9077;BME280;4574;51.072;17.174;2023-03-22T06:56:24;99872.53;;;10.53;100.00
9077;BME280;4574;51.072;17.174;2023-03-22T06:58:53;99862.50;;;10.56;100.00
9077;BME280;4574;51.072;17.174;2023-03-22T07:01:24;99863.34;;;10.64;100.00
9077;BME280;4574;51.072;17.174;2023-03-22T07:03:52;99867.56;;;10.75;100.00
9077;BME280;4574;51.072;17.174;2023-03-22T07:06:21;99873.22;;;10.80;100.00
9077;BME280;4574;51.072;17.174;2023-03-22T07:08:50;99874.94;;;10.89;100.00
9077;BME280;4574;51.072;17.174;2023-03-22T07:11:19;99871.34;;;10.98;100.00
9077;BME280;4574;51.072;17.174;2023-03-22T07:13:49;99876.69;;;11.06;100.00
9077;BME280;4574;51.072;17.174;2023-03-22T07:16:18;99873.09;;;11.15;100.00
9077;BME280;4574;51.072;17.174;2023-03-22T07:18:47;99881.59;;;11.26;100.00
9077;BME280;4574;51.072;17.174;2023-03-22T07:21:16;99884.09;;;11.36;100.00
9077;BME280;4574;51.072;17.174;2023-03-22T07:23:45;99883.81;;;11.47;100.00
9077;BME280;4574;51.072;17.174;2023-03-22T07:26:13;99876.78;;;11.55;100.00
9077;BME280;4574;51.072;17.174;2023-03-22T07:28:42;99876.94;;;11.62;100.00
9077;BME280;4574;51.072;17.174;2023-03-22T07:31:13;99870.84;;;11.77;100.00
9077;BME280;4574;51.072;17.174;2023-03-22T07:33:42;99861.25;;;11.84;100.00
9077;BME280;4574;51.072;17.174;2023-03-22T07:36:11;99855.97;;;11.92;100.00
9077;BME280;4574;51.072;17.174;2023-03-22T07:38:40;99861.28;;;12.00;100.00
9077;BME280;4574;51.072;17.174;2023-03-22T07:41:08;99858.97;;;12.05;100.00
9077;BME280;4574;51.072;17.174;2023-03-22T07:43:37;99859.16;;;12.11;100.00
9077;BME280;4574;51.072;17.174;2023-03-22T07:46:22;99857.50;;;12.18;100.00
9077;BME280;4574;51.072;17.174;2023-03-22T07:48:51;99860.13;;;12.42;100.00
9077;BME280;4574;51.072;17.174;2023-03-22T07:51:19;99861.13;;;12.57;100.00
9077;BME280;4574;51.072;17.174;2023-03-22T07:53:48;99854.16;;;12.56;100.00
9077;BME280;4574;51.072;17.174;2023-03-22T07:56:17;99847.50;;;12.60;100.00
9077;BME280;4574;51.072;17.174;2023-03-22T07:58:46;99827.94;;;12.53;100.00
9077;BME280;4574;51.072;17.174;2023-03-22T08:01:14;99840.50;;;12.67;100.00
9077;BME280;4574;51.072;17.174;2023-03-22T08:03:48;99844.31;;;12.73;100.00
9077;BME280;4574;51.072;17.174;2023-03-22T08:06:18;99837.69;;;12.77;100.00
9077;BME280;4574;51.072;17.174;2023-03-22T08:08:47;99842.13;;;12.84;100.00
9077;BME280;4574;51.072;17.174;2023-03-22T08:11:16;99832.81;;;12.88;100.00
9077;BME280;4574;51.072;17.174;2023-03-22T08:13:44;99844.44;;;13.03;100.00
9077;BME280;4574;51.072;17.174;2023-03-22T08:16:13;99846.41;;;13.09;100.00
9077;BME280;4574;51.072;17.174;2023-03-22T08:18:41;99842.41;;;13.13;100.00
9077;BME280;4574;51.072;17.174;2023-03-22T08:21:12;99836.91;;;13.23;100.00
9077;BME280;4574;51.072;17.174;2023-03-22T08:23:41;99843.19;;;13.30;100.00
9077;BME280;4574;51.072;17.174;2023-03-22T08:26:10;99842.94;;;13.39;100.00
9077;BME280;4574;51.072;17.174;2023-03-22T08:28:39;99844.25;;;13.43;100.00
9077;BME280;4574;51.072;17.174;2023-03-22T08:31:11;99838.94;;;13.43;100.00
9077;BME280;4574;51.072;17.174;2023-03-22T08:33:42;99839.44;;;13.46;100.00
9077;BME280;4574;51.072;17.174;2023-03-22T08:36:15;99849.19;;;13.54;100.00
9077;BME280;4574;51.072;17.174;2023-03-22T08:38:44;99842.72;;;13.56;100.00
9077;BME280;4574;51.072;17.174;2023-03-22T08:41:13;99826.78;;;13.48;100.00
9077;BME280;4574;51.072;17.174;2023-03-22T08:43:42;99837.69;;;13.61;100.00
9077;BME280;4574;51.072;17.174;2023-03-22T08:46:10;99842.16;;;13.69;100.00
9077;BME280;4574;51.072;17.174;2023-03-22T08:48:39;99841.91;;;13.78;100.00
9077;BME280;4574;51.072;17.174;2023-03-22T08:51:07;99833.22;;;13.84;100.00
9077;BME280;4574;51.072;17.174;2023-03-22T08:53:38;99844.25;;;14.04;100.00
9077;BME280;4574;51.072;17.174;2023-03-22T08:56:07;99833.25;;;14.07;100.00
9077;BME280;4574;51.072;17.174;2023-03-22T08:58:36;99832.69;;;14.11;100.00
9077;BME280;4574;51.072;17.174;2023-03-22T09:01:05;99825.53;;;14.12;100.00
9077;BME280;4574;51.072;17.174;2023-03-22T09:03:33;99822.84;;;14.20;100.00
9077;BME280;4574;51.072;17.174;2023-03-22T09:06:02;99834.06;;;14.30;100.00
9077;BME280;4574;51.072;17.174;2023-03-22T09:08:31;99810.41;;;14.35;100.00
9077;BME280;4574;51.072;17.174;2023-03-22T09:11:03;99820.25;;;14.49;100.00
9077;BME280;4574;51.072;17.174;2023-03-22T09:13:31;99824.69;;;14.56;100.00
9077;BME280;4574;51.072;17.174;2023-03-22T09:16:00;99814.47;;;14.60;100.00
9077;BME280;4574;51.072;17.174;2023-03-22T09:18:30;99812.81;;;14.59;100.00
9077;BME280;4574;51.072;17.174;2023-03-22T09:20:58;99817.44;;;14.65;100.00
9077;BME280;4574;51.072;17.174;2023-03-22T09:23:27;99795.19;;;14.58;100.00
9077;BME280;4574;51.072;17.174;2023-03-22T09:25:58;99810.56;;;14.70;100.00
9077;BME280;4574;51.072;17.174;2023-03-22T09:28:29;99810.63;;;14.76;100.00
9077;BME280;4574;51.072;17.174;2023-03-22T09:30:59;99811.13;;;14.80;100.00
9077;BME280;4574;51.072;17.174;2023-03-22T09:33:28;99814.50;;;14.88;100.00
9077;BME280;4574;51.072;17.174;2023-03-22T09:35:56;99797.78;;;14.94;100.00
9077;BME280;4574;51.072;17.174;2023-03-22T09:38:25;99795.00;;;15.02;100.00
9077;BME280;4574;51.072;17.174;2023-03-22T09:40:55;99808.41;;;15.23;100.00
9077;BME280;4574;51.072;17.174;2023-03-22T09:43:32;99809.44;;;15.37;100.00
9077;BME280;4574;51.072;17.174;2023-03-22T09:46:03;99804.47;;;15.48;100.00
9077;BME280;4574;51.072;17.174;2023-03-22T09:48:34;99807.19;;;15.55;100.00
9077;BME280;4574;51.072;17.174;2023-03-22T09:51:16;99798.13;;;15.49;100.00
9077;BME280;4574;51.072;17.174;2023-03-22T09:53:50;99804.53;;;15.55;100.00
9077;BME280;4574;51.072;17.174;2023-03-22T09:56:21;99795.72;;;15.54;100.00
9077;BME280;4574;51.072;17.174;2023-03-22T09:58:55;99802.09;;;15.74;100.00
9077;BME280;4574;51.072;17.174;2023-03-22T10:01:33;99799.28;;;15.82;100.00
9077;BME280;4574;51.072;17.174;2023-03-22T10:04:17;99803.88;;;15.88;100.00
9077;BME280;4574;51.072;17.174;2023-03-22T10:06:50;99799.28;;;15.82;100.00
9077;BME280;4574;51.072;17.174;2023-03-22T10:09:29;99791.91;;;15.84;100.00
9077;BME280;4574;51.072;17.174;2023-03-22T10:12:08;99799.16;;;15.90;100.00
9077;BME280;4574;51.072;17.174;2023-03-22T10:14:41;99789.94;;;15.93;100.00
9077;BME280;4574;51.072;17.174;2023-03-22T10:17:15;99787.09;;;15.94;100.00
9077;BME280;4574;51.072;17.174;2023-03-22T10:19:50;99789.00;;;16.00;100.00
9077;BME280;4574;51.072;17.174;2023-03-22T10:22:23;99796.88;;;16.08;100.00
9077;BME280;4574;51.072;17.174;2023-03-22T10:24:53;99801.06;;;16.17;100.00
9077;BME280;4574;51.072;17.174;2023-03-22T10:27:23;99788.19;;;16.27;100.00
9077;BME280;4574;51.072;17.174;2023-03-22T10:29:58;99775.69;;;16.27;100.00
9077;BME280;4574;51.072;17.174;2023-03-22T10:32:31;99783.22;;;16.45;100.00
9077;BME280;4574;51.072;17.174;2023-03-22T10:35:22;99783.47;;;16.50;100.00
9077;BME280;4574;51.072;17.174;2023-03-22T10:37:51;99780.41;;;16.53;100.00
9077;BME280;4574;51.072;17.174;2023-03-22T10:40:25;99775.94;;;16.60;100.00
9077;BME280;4574;51.072;17.174;2023-03-22T10:42:55;99781.97;;;16.68;100.00
9077;BME280;4574;51.072;17.174;2023-03-22T10:45:26;99783.25;;;16.79;100.00
9077;BME280;4574;51.072;17.174;2023-03-22T10:47:57;99777.50;;;16.82;100.00
9077;BME280;4574;51.072;17.174;2023-03-22T10:50:30;99779.88;;;16.98;100.00
9077;BME280;4574;51.072;17.174;2023-03-22T10:53:02;99780.63;;;16.85;97.30
9077;BME280;4574;51.072;17.174;2023-03-22T10:55:37;99777.97;;;16.92;99.27
9077;BME280;4574;51.072;17.174;2023-03-22T10:58:11;99780.47;;;16.93;99.79
9077;BME280;4574;51.072;17.174;2023-03-22T11:00:46;99779.72;;;17.06;100.00
9077;BME280;4574;51.072;17.174;2023-03-22T11:03:25;99777.59;;;16.95;96.80
9077;BME280;4574;51.072;17.174;2023-03-22T11:05:59;99760.72;;;16.94;98.30
9077;BME280;4574;51.072;17.174;2023-03-22T11:08:28;99771.50;;;17.07;98.12
9077;BME280;4574;51.072;17.174;2023-03-22T11:11:06;99771.53;;;17.14;98.59
9077;BME280;4574;51.072;17.174;2023-03-22T11:13:41;99764.63;;;17.32;98.22
9077;BME280;4574;51.072;17.174;2023-03-22T11:16:16;99766.75;;;17.50;96.17
9077;BME280;4574;51.072;17.174;2023-03-22T11:18:45;99758.94;;;17.54;96.58
9077;BME280;4574;51.072;17.174;2023-03-22T11:21:15;99761.66;;;17.67;97.02
9077;BME280;4574;51.072;17.174;2023-03-22T11:23:52;99750.34;;;17.78;95.58
9077;BME280;4574;51.072;17.174;2023-03-22T11:26:31;99755.09;;;17.89;95.54
9077;BME280;4574;51.072;17.174;2023-03-22T11:46:57;99716.97;;;18.13;91.79
9077;BME280;4574;51.072;17.174;2023-03-22T11:49:37;99711.84;;;18.12;91.83
9077;BME280;4574;51.072;17.174;2023-03-22T11:52:09;99709.16;;;18.18;92.04
9077;BME280;4574;51.072;17.174;2023-03-22T11:54:40;99709.38;;;18.17;90.04
9077;BME280;4574;51.072;17.174;2023-03-22T12:21:04;99676.56;;;18.47;89.20
9077;BME280;4574;51.072;17.174;2023-03-22T12:23:33;99683.34;;;18.63;89.59
9077;BME280;4574;51.072;17.174;2023-03-22T12:26:04;99673.22;;;18.58;88.34
9077;BME280;4574;51.072;17.174;2023-03-22T12:28:39;99674.69;;;18.54;88.45
9077;BME280;4574;51.072;17.174;2023-03-22T12:31:13;99683.72;;;18.66;89.46
9077;BME280;4574;51.072;17.174;2023-03-22T12:33:46;99677.31;;;18.80;89.59
9077;BME280;4574;51.072;17.174;2023-03-22T12:36:19;99665.75;;;18.80;88.51
9077;BME280;4574;51.072;17.174;2023-03-22T12:38:51;99670.00;;;18.93;89.96
9077;BME280;4574;51.072;17.174;2023-03-22T12:41:25;99666.84;;;19.09;88.87
9077;BME280;4574;51.072;17.174;2023-03-22T12:44:00;99658.81;;;19.16;88.46
9077;BME280;4574;51.072;17.174;2023-03-22T12:46:34;99665.59;;;19.12;78.63
9077;BME280;4574;51.072;17.174;2023-03-22T12:49:14;99669.09;;;19.12;76.49
9077;BME280;4574;51.072;17.174;2023-03-22T12:51:49;99667.69;;;19.10;76.46
9077;BME280;4574;51.072;17.174;2023-03-22T12:54:22;99666.91;;;18.96;73.21
9077;BME280;4574;51.072;17.174;2023-03-22T12:56:52;99664.38;;;19.08;72.68
9077;BME280;4574;51.072;17.174;2023-03-22T12:59:25;99658.22;;;19.01;72.24
9077;BME280;4574;51.072;17.174;2023-03-22T13:01:57;99659.84;;;19.15;72.60
9077;BME280;4574;51.072;17.174;2023-03-22T13:04:31;99652.31;;;19.30;71.42
9077;BME280;4574;51.072;17.174;2023-03-22T13:07:16;99659.50;;;19.36;69.53
9077;BME280;4574;51.072;17.174;2023-03-22T13:09:58;99642.56;;;19.35;69.61
9077;BME280;4574;51.072;17.174;2023-03-22T13:12:32;99642.09;;;19.45;70.99
9077;BME280;4574;51.072;17.174;2023-03-22T13:15:29;99638.53;;;19.51;69.30
9077;BME280;4574;51.072;17.174;2023-03-22T13:18:27;99633.50;;;19.61;67.66
9077;BME280;4574;51.072;17.174;2023-03-22T13:21:11;99634.97;;;19.57;68.01
9077;BME280;4574;51.072;17.174;2023-03-22T13:23:58;99633.06;;;19.64;66.29
9077;BME280;4574;51.072;17.174;2023-03-22T13:26:34;99627.66;;;19.70;66.23
9077;BME280;4574;51.072;17.174;2023-03-22T13:29:10;99634.84;;;19.76;65.50
9077;BME280;4574;51.072;17.174;2023-03-22T13:31:45;99623.94;;;19.71;62.22
9077;BME280;4574;51.072;17.174;2023-03-22T13:34:17;99615.09;;;19.89;65.23
9077;BME280;4574;51.072;17.174;2023-03-22T13:36:51;99615.84;;;19.96;65.41
9077;BME280;4574;51.072;17.174;2023-03-22T13:39:23;99624.94;;;19.95;65.56
9077;BME280;4574;51.072;17.174;2023-03-22T13:42:05;99617.56;;;19.90;63.86
9077;BME280;4574;51.072;17.174;2023-03-22T13:44:37;99606.53;;;19.74;64.63
9077;BME280;4574;51.072;17.174;2023-03-22T13:47:07;99614.00;;;19.72;64.17
9077;BME280;4574;51.072;17.174;2023-03-22T13:49:59;99622.00;;;19.54;64.97
9077;BME280;4574;51.072;17.174;2023-03-22T13:52:36;99617.06;;;19.51;66.08
9077;BME280;4574;51.072;17.174;2023-03-22T13:57:59;99602.56;;;19.58;66.47
9077;BME280;4574;51.072;17.174;2023-03-22T14:00:51;99609.16;;;19.56;66.04
9077;BME280;4574;51.072;17.174;2023-03-22T14:03:26;99599.34;;;19.43;66.40
9077;BME280;4574;51.072;17.174;2023-03-22T14:06:08;99606.31;;;19.51;67.92
9077;BME280;4574;51.072;17.174;2023-03-22T14:08:40;99598.09;;;19.46;67.25
9077;BME280;4574;51.072;17.174;2023-03-22T14:11:18;99594.38;;;19.47;67.81
9077;BME280;4574;51.072;17.174;2023-03-22T14:13:50;99596.06;;;19.41;67.88
9077;BME280;4574;51.072;17.174;2023-03-22T14:16:32;99601.81;;;19.45;68.82
9077;BME280;4574;51.072;17.174;2023-03-22T14:19:04;99589.28;;;19.39;69.29